Time;durP1;ratioP1;P1;durP2;ratioP2;P2;SDS_P1;SDS_P2;PMS_P1;PMS_P2;Temp;Humidity;BMP_temperature;BMP_pressure;BME280_temperature;BME280_humidity;BME280_pressure;Samples;Min_cycle;Max_cycle;Signal;HPM_P1;HPM_P2
2021/06/30 00:00:21;;;;;;;;;;;24.80;44.40;;;;;;8266845;28;19930;-48
2021/06/30 00:04:22;;;;;;;;;;;24.80;44.40;;;;;;8266144;28;20274;-48
2021/06/30 00:08:22;;;;;;;;;;;24.80;44.40;;;;;;8266551;28;19980;-49
2021/06/30 00:12:23;;;;;;;;;;;24.80;44.40;;;;;;8267351;28;19957;-49
2021/06/30 00:16:23;;;;;;;;;;;24.80;44.40;;;;;;8268934;28;19921;-49
2021/06/30 00:20:24;;;;;;;;;;;24.80;44.40;;;;;;8266488;28;19991;-49
2021/06/30 00:24:24;;;;;;;;;;;24.80;44.40;;;;;;8266008;28;20004;-49
2021/06/30 00:28:25;;;;;;;;;;;24.70;44.30;;;;;;8265372;28;19921;-49
2021/06/30 00:32:25;;;;;;;;;;;24.70;44.30;;;;;;8270034;28;20360;-48
2021/06/30 00:36:26;;;;;;;;;;;24.80;44.40;;;;;;8265617;28;19913;-48
2021/06/30 00:40:27;;;;;;;;;;;24.70;44.30;;;;;;8264579;28;19921;-49
2021/06/30 00:44:33;;;;;;;;;;;24.70;44.30;;;;;;8265558;28;20001;-48
2021/06/30 00:48:35;;;;;;;;;;;24.70;44.30;;;;;;8273578;28;19920;-48
2021/06/30 00:52:36;;;;;;;;;;;24.70;44.30;;;;;;8264658;28;19914;-50
2021/06/30 00:56:36;;;;;;;;;;;24.70;44.30;;;;;;8265146;28;19917;-49
2021/06/30 01:00:36;;;;;;;;;;;24.70;44.30;;;;;;8265062;28;19918;-48
2021/06/30 01:04:37;;;;;;;;;;;24.70;44.40;;;;;;8264908;28;19917;-49
2021/06/30 01:08:37;;;;;;;;;;;24.70;44.40;;;;;;8269157;28;19953;-48
2021/06/30 01:12:38;;;;;;;;;;;24.60;44.40;;;;;;8264556;28;19913;-48
2021/06/30 01:16:38;;;;;;;;;;;24.60;44.40;;;;;;8263876;28;20004;-48
2021/06/30 01:20:39;;;;;;;;;;;24.60;44.40;;;;;;8264172;28;19921;-48
2021/06/30 01:24:39;;;;;;;;;;;24.60;44.40;;;;;;8268458;28;19957;-48
2021/06/30 01:28:40;;;;;;;;;;;24.60;44.40;;;;;;8263456;28;20339;-49
2021/06/30 01:32:40;;;;;;;;;;;24.60;44.40;;;;;;8264216;28;20434;-50
2021/06/30 01:36:44;;;;;;;;;;;24.60;44.40;;;;;;8264064;28;19909;-48
2021/06/30 01:40:44;;;;;;;;;;;24.60;44.40;;;;;;8265135;28;19929;-50
2021/06/30 01:44:45;;;;;;;;;;;24.60;44.40;;;;;;8265687;28;19945;-49
2021/06/30 01:48:46;;;;;;;;;;;24.60;44.40;;;;;;8263389;28;19921;-49
2021/06/30 01:52:47;;;;;;;;;;;24.50;44.40;;;;;;8262100;28;20379;-49
2021/06/30 01:56:48;;;;;;;;;;;24.60;44.40;;;;;;8263453;28;19920;-47
2021/06/30 02:00:53;;;;;;;;;;;24.50;44.40;;;;;;8267515;28;19926;-47
2021/06/30 02:05:10;;;;;;;;;;;24.50;44.40;;;;;;8262707;28;19988;-48
2021/06/30 02:09:12;;;;;;;;;;;24.50;44.40;;;;;;8263011;28;19913;-46
2021/06/30 02:13:12;;;;;;;;;;;24.50;44.40;;;;;;8262362;28;19964;-47
2021/06/30 02:17:17;;;;;;;;;;;24.50;44.40;;;;;;8263572;28;19992;-47
2021/06/30 02:21:18;;;;;;;;;;;24.50;44.40;;;;;;8266900;28;19925;-48
2021/06/30 02:25:21;;;;;;;;;;;24.50;44.40;;;;;;8262475;28;19921;-47
2021/06/30 02:29:21;;;;;;;;;;;24.50;44.40;;;;;;8262075;28;20013;-47
2021/06/30 02:33:22;;;;;;;;;;;24.50;44.40;;;;;;8262195;28;19910;-47
2021/06/30 02:37:23;;;;;;;;;;;24.50;44.40;;;;;;8266124;28;19914;-48
2021/06/30 02:41:23;;;;;;;;;;;24.40;44.40;;;;;;8261875;28;19952;-48
2021/06/30 02:45:24;;;;;;;;;;;24.50;44.40;;;;;;8261943;28;19957;-50
2021/06/30 02:49:24;;;;;;;;;;;24.40;44.30;;;;;;8261274;28;19956;-48
2021/06/30 02:53:25;;;;;;;;;;;24.50;44.40;;;;;;8266285;28;19913;-47
2021/06/30 02:57:25;;;;;;;;;;;24.40;44.40;;;;;;8261837;28;19917;-48
2021/06/30 03:01:26;;;;;;;;;;;24.40;44.40;;;;;;8260999;28;19972;-48
2021/06/30 03:05:26;;;;;;;;;;;24.40;44.40;;;;;;8266438;28;20004;-47
2021/06/30 03:09:26;;;;;;;;;;;24.40;44.40;;;;;;8268258;28;19918;-49
2021/06/30 03:13:27;;;;;;;;;;;24.40;44.40;;;;;;8271938;28;20290;-48
2021/06/30 03:17:28;;;;;;;;;;;24.40;44.40;;;;;;8268468;28;19937;-48
2021/06/30 03:21:28;;;;;;;;;;;24.30;44.40;;;;;;8267896;28;19918;-48
2021/06/30 03:25:29;;;;;;;;;;;24.30;44.40;;;;;;8267261;28;20402;-47
2021/06/30 03:29:29;;;;;;;;;;;24.30;44.40;;;;;;8271998;28;19997;-49
2021/06/30 03:33:29;;;;;;;;;;;24.30;44.40;;;;;;8267510;28;19914;-49
2021/06/30 03:37:30;;;;;;;;;;;24.30;44.40;;;;;;8267117;28;20363;-50
2021/06/30 03:41:30;;;;;;;;;;;24.30;44.40;;;;;;8267113;28;19928;-47
2021/06/30 03:45:31;;;;;;;;;;;24.30;44.40;;;;;;8271468;28;19939;-48
2021/06/30 03:49:31;;;;;;;;;;;24.30;44.40;;;;;;8266883;28;20294;-48
2021/06/30 03:53:32;;;;;;;;;;;24.30;44.40;;;;;;8267146;28;19914;-49
2021/06/30 03:57:32;;;;;;;;;;;24.30;44.40;;;;;;8266892;28;20008;-48
2021/06/30 04:01:33;;;;;;;;;;;24.30;44.40;;;;;;8266203;28;19932;-49
2021/06/30 04:05:33;;;;;;;;;;;24.30;44.90;;;;;;8270773;28;20359;-52
2021/06/30 04:09:34;;;;;;;;;;;24.20;44.40;;;;;;8266658;28;19921;-48
2021/06/30 04:13:34;;;;;;;;;;;24.20;44.30;;;;;;8265928;28;19913;-48
2021/06/30 04:17:35;;;;;;;;;;;24.20;44.30;;;;;;8266054;28;19914;-48
2021/06/30 04:21:35;;;;;;;;;;;24.20;44.30;;;;;;8270640;28;19976;-49
2021/06/30 04:25:36;;;;;;;;;;;24.20;44.40;;;;;;8265696;28;19914;-48
2021/06/30 04:29:36;;;;;;;;;;;24.20;44.40;;;;;;8266077;28;19913;-48
2021/06/30 04:33:37;;;;;;;;;;;24.20;44.40;;;;;;8266066;28;20008;-49
2021/06/30 04:37:37;;;;;;;;;;;24.20;44.40;;;;;;8266121;28;19914;-49
2021/06/30 04:41:38;;;;;;;;;;;24.20;44.40;;;;;;8269058;28;19932;-51
2021/06/30 04:45:38;;;;;;;;;;;24.20;44.30;;;;;;8265407;28;19968;-49
2021/06/30 04:49:38;;;;;;;;;;;24.20;44.30;;;;;;8264906;28;20000;-48
2021/06/30 04:53:39;;;;;;;;;;;24.20;44.30;;;;;;8264959;28;19940;-50
2021/06/30 04:57:39;;;;;;;;;;;24.20;44.40;;;;;;8269286;28;20287;-48
2021/06/30 05:01:40;;;;;;;;;;;24.20;44.40;;;;;;8264556;28;19922;-48
2021/06/30 05:05:40;;;;;;;;;;;24.20;44.40;;;;;;8265115;28;19952;-48
2021/06/30 05:09:41;;;;;;;;;;;24.20;44.40;;;;;;8264725;28;19916;-47
2021/06/30 05:13:41;;;;;;;;;;;24.20;44.30;;;;;;8268344;28;19914;-48
2021/06/30 05:17:42;;;;;;;;;;;24.20;44.30;;;;;;8264643;28;19921;-48
2021/06/30 05:21:42;;;;;;;;;;;24.20;44.30;;;;;;8264225;28;19918;-48
2021/06/30 05:25:42;;;;;;;;;;;24.20;44.10;;;;;;8263639;28;19920;-48
2021/06/30 05:29:43;;;;;;;;;;;24.40;43.90;;;;;;8263831;28;19948;-48
2021/06/30 05:33:43;;;;;;;;;;;24.60;43.80;;;;;;8268226;28;19973;-49
2021/06/30 05:37:44;;;;;;;;;;;24.80;43.20;;;;;;8263294;28;20360;-47
2021/06/30 05:41:45;;;;;;;;;;;24.90;42.80;;;;;;8263464;28;19973;-48
2021/06/30 05:45:47;;;;;;;;;;;25.00;42.60;;;;;;8263512;28;19914;-47
2021/06/30 05:49:47;;;;;;;;;;;25.00;42.50;;;;;;8267105;28;19909;-49
2021/06/30 05:53:48;;;;;;;;;;;24.90;42.60;;;;;;8261926;28;19914;-47
2021/06/30 05:57:48;;;;;;;;;;;24.90;42.60;;;;;;8261819;28;20355;-47
2021/06/30 06:01:49;;;;;;;;;;;24.90;42.80;;;;;;8261214;28;19984;-48
2021/06/30 06:05:49;;;;;;;;;;;24.80;42.90;;;;;;8265954;28;20004;-49
2021/06/30 06:09:50;;;;;;;;;;;24.70;43.00;;;;;;8261288;28;19947;-46
2021/06/30 06:13:50;;;;;;;;;;;24.60;43.20;;;;;;8259698;28;19921;-48
2021/06/30 06:17:51;;;;;;;;;;;24.50;43.40;;;;;;8261475;28;19910;-47
2021/06/30 06:21:52;;;;;;;;;;;24.50;43.50;;;;;;8260821;28;19922;-48
2021/06/30 06:25:52;;;;;;;;;;;24.40;43.50;;;;;;8264898;28;19953;-48
2021/06/30 06:29:52;;;;;;;;;;;24.40;43.60;;;;;;8260517;28;20433;-47
2021/06/30 06:33:53;;;;;;;;;;;24.40;43.70;;;;;;8261362;28;19953;-48
2021/06/30 06:37:53;;;;;;;;;;;24.30;43.70;;;;;;8259943;28;20348;-49
2021/06/30 06:41:55;;;;;;;;;;;24.30;43.80;;;;;;8264874;28;19964;-48
2021/06/30 06:45:55;;;;;;;;;;;24.30;43.80;;;;;;8260349;28;19913;-47
2021/06/30 06:49:55;;;;;;;;;;;24.30;43.90;;;;;;8259760;28;19914;-48
2021/06/30 06:53:56;;;;;;;;;;;24.30;43.90;;;;;;8260106;28;20347;-51
2021/06/30 06:57:56;;;;;;;;;;;24.30;43.90;;;;;;8264241;28;20004;-48
2021/06/30 07:01:57;;;;;;;;;;;24.20;43.90;;;;;;8260078;28;19921;-48
2021/06/30 07:05:57;;;;;;;;;;;24.30;44.00;;;;;;8259950;28;20299;-49
2021/06/30 07:09:58;;;;;;;;;;;24.20;43.90;;;;;;8259763;28;19917;-50
2021/06/30 07:13:58;;;;;;;;;;;24.20;43.90;;;;;;8260083;28;20347;-48
2021/06/30 07:17:59;;;;;;;;;;;24.20;44.00;;;;;;8264681;28;19937;-49
2021/06/30 07:21:59;;;;;;;;;;;24.20;44.00;;;;;;8259587;28;19929;-51
2021/06/30 07:26:00;;;;;;;;;;;24.20;44.00;;;;;;8259646;28;20426;-51
2021/06/30 07:30:01;;;;;;;;;;;24.20;44.50;;;;;;8260377;28;19910;-49
2021/06/30 07:34:01;;;;;;;;;;;24.10;44.00;;;;;;8265268;28;20284;-51
2021/06/30 07:38:02;;;;;;;;;;;24.20;44.00;;;;;;8260802;28;20359;-50
2021/06/30 07:42:02;;;;;;;;;;;24.10;44.00;;;;;;8261194;28;19921;-51
2021/06/30 07:46:03;;;;;;;;;;;24.10;44.00;;;;;;8260343;28;19910;-49
2021/06/30 07:50:05;;;;;;;;;;;24.20;44.00;;;;;;8262315;28;19948;-51
2021/06/30 07:54:05;;;;;;;;;;;24.10;44.00;;;;;;8270193;28;20329;-49
2021/06/30 07:58:06;;;;;;;;;;;24.20;44.00;;;;;;8266909;28;19913;-49
2021/06/30 08:02:06;;;;;;;;;;;24.20;44.00;;;;;;8266997;28;19917;-49
2021/06/30 08:06:07;;;;;;;;;;;24.20;44.00;;;;;;8266883;28;19918;-51
2021/06/30 08:10:08;;;;;;;;;;;24.20;44.00;;;;;;8270314;28;19992;-49
2021/06/30 08:14:08;;;;;;;;;;;24.20;44.00;;;;;;8266292;28;19925;-49
2021/06/30 08:18:10;;;;;;;;;;;24.20;44.00;;;;;;8266357;28;19968;-51
2021/06/30 08:22:11;;;;;;;;;;;24.20;44.00;;;;;;8265649;28;20004;-49
2021/06/30 08:26:12;;;;;;;;;;;24.10;43.90;;;;;;8270259;28;19909;-52
2021/06/30 08:30:13;;;;;;;;;;;24.20;44.00;;;;;;8265781;28;20117;-49
2021/06/30 08:34:13;;;;;;;;;;;24.20;43.90;;;;;;8264790;28;20445;-48
2021/06/30 08:38:13;;;;;;;;;;;24.20;43.90;;;;;;8265514;28;20390;-48
2021/06/30 08:42:15;;;;;;;;;;;24.20;43.90;;;;;;8265448;28;19914;-48
2021/06/30 08:46:17;;;;;;;;;;;24.20;43.90;;;;;;8269261;28;19910;-48
2021/06/30 08:50:18;;;;;;;;;;;24.20;43.90;;;;;;8240818;28;19914;-48
2021/06/30 08:54:20;;;;;;;;;;;24.20;43.80;;;;;;8247038;28;20004;-48
2021/06/30 08:58:20;;;;;;;;;;;24.20;43.80;;;;;;8264443;28;19914;-47
2021/06/30 09:02:21;;;;;;;;;;;24.20;43.80;;;;;;8269101;28;19930;-49
2021/06/30 09:06:22;;;;;;;;;;;24.20;44.30;;;;;;8264650;28;19917;-51
2021/06/30 09:10:31;;;;;;;;;;;24.20;43.70;;;;;;8264137;28;20037;-48
2021/06/30 09:14:37;;;;;;;;;;;24.30;43.80;;;;;;8264663;28;19918;-48
2021/06/30 09:18:39;;;;;;;;;;;24.30;43.80;;;;;;8267867;28;20272;-48
2021/06/30 09:22:54;;;;;;;;;;;24.30;43.70;;;;;;8268171;28;19936;-52
2021/06/30 09:26:57;;;;;;;;;;;24.30;43.70;;;;;;8279078;28;19914;-48
2021/06/30 09:30:58;;;;;;;;;;;24.30;43.70;;;;;;8263488;28;19914;-48
2021/06/30 09:35:19;;;;;;;;;;;24.30;43.70;;;;;;8264105;28;20279;-51
2021/06/30 09:39:19;;;;;;;;;;;24.30;43.70;;;;;;8263696;28;19917;-50
2021/06/30 09:43:31;;;;;;;;;;;24.30;43.70;;;;;;8267524;28;19968;-48
2021/06/30 09:47:48;;;;;;;;;;;24.30;43.60;;;;;;8262183;28;19964;-48
2021/06/30 09:52:03;;;;;;;;;;;24.30;43.60;;;;;;8263735;28;20295;-48
2021/06/30 09:56:07;;;;;;;;;;;24.30;43.70;;;;;;8263060;28;19976;-51
2021/06/30 10:00:11;;;;;;;;;;;24.30;43.60;;;;;;8263362;28;19964;-51
2021/06/30 10:04:31;;;;;;;;;;;24.30;43.50;;;;;;8267310;28;19924;-52
2021/06/30 10:08:37;;;;;;;;;;;24.30;43.50;;;;;;8263187;28;19917;-52
2021/06/30 10:12:38;;;;;;;;;;;24.40;43.50;;;;;;8262779;28;19945;-51
2021/06/30 10:16:38;;;;;;;;;;;24.40;43.50;;;;;;8277692;28;19929;-49
2021/06/30 10:20:40;;;;;;;;;;;24.40;43.40;;;;;;8267348;28;20305;-51
2021/06/30 10:24:41;;;;;;;;;;;24.40;43.40;;;;;;8263163;28;19918;-48
2021/06/30 10:28:42;;;;;;;;;;;24.40;43.40;;;;;;8261616;28;19914;-49
2021/06/30 10:33:03;;;;;;;;;;;24.40;43.40;;;;;;8262393;28;19957;-51
2021/06/30 10:37:15;;;;;;;;;;;24.50;43.40;;;;;;8261431;28;19913;-48
2021/06/30 10:41:35;;;;;;;;;;;24.50;44.00;;;;;;8266773;28;20339;-51
2021/06/30 10:45:35;;;;;;;;;;;24.50;43.40;;;;;;8262202;28;19914;-49
2021/06/30 10:49:36;;;;;;;;;;;24.40;43.30;;;;;;8261473;28;19913;-50
2021/06/30 10:53:37;;;;;;;;;;;24.50;43.40;;;;;;8262338;28;19910;-47
2021/06/30 10:57:37;;;;;;;;;;;24.50;43.40;;;;;;8261127;28;20268;-47
2021/06/30 11:01:58;;;;;;;;;;;24.40;43.30;;;;;;8265808;28;19917;-49
2021/06/30 11:06:12;;;;;;;;;;;24.40;43.30;;;;;;8261206;28;20017;-48
2021/06/30 11:10:21;;;;;;;;;;;24.50;43.40;;;;;;8261050;28;19972;-51
2021/06/30 11:14:36;;;;;;;;;;;24.50;43.30;;;;;;8261633;28;19917;-50
2021/06/30 11:18:41;;;;;;;;;;;24.50;43.30;;;;;;8261445;28;19918;-48
2021/06/30 11:22:41;;;;;;;;;;;24.50;43.30;;;;;;8265190;28;19913;-49
2021/06/30 11:26:42;;;;;;;;;;;24.50;43.20;;;;;;8266552;28;19928;-52
2021/06/30 11:30:42;;;;;;;;;;;24.50;43.20;;;;;;8267540;28;19932;-48
2021/06/30 11:34:43;;;;;;;;;;;24.50;43.10;;;;;;8267046;28;19959;-49
2021/06/30 11:38:43;;;;;;;;;;;24.50;43.10;;;;;;8271936;28;19988;-51
2021/06/30 11:42:48;;;;;;;;;;;24.50;43.00;;;;;;8267282;28;19959;-49
2021/06/30 11:46:51;;;;;;;;;;;24.50;43.00;;;;;;8267055;28;19913;-49
2021/06/30 11:51:11;;;;;;;;;;;24.50;43.10;;;;;;8267310;28;19910;-51
2021/06/30 11:55:13;;;;;;;;;;;24.60;43.00;;;;;;8281589;28;19968;-50
2021/06/30 11:59:17;;;;;;;;;;;24.60;43.00;;;;;;8271233;28;19953;-50
2021/06/30 12:03:17;;;;;;;;;;;24.60;43.00;;;;;;8266702;28;20403;-50
2021/06/30 12:07:18;;;;;;;;;;;24.60;43.00;;;;;;8266968;28;19964;-48
2021/06/30 12:11:34;;;;;;;;;;;24.60;42.90;;;;;;8266418;28;19914;-48
2021/06/30 12:15:39;;;;;;;;;;;24.60;42.90;;;;;;8266489;28;20441;-50
2021/06/30 12:19:45;;;;;;;;;;;24.60;43.00;;;;;;8270213;28;19926;-50
2021/06/30 12:23:45;;;;;;;;;;;24.60;42.90;;;;;;8266275;28;20264;-51
2021/06/30 12:27:47;;;;;;;;;;;24.60;42.90;;;;;;8265513;28;20008;-48
2021/06/30 12:31:48;;;;;;;;;;;24.60;42.90;;;;;;8265348;28;20052;-51
2021/06/30 12:35:48;;;;;;;;;;;24.60;42.90;;;;;;8269754;28;19956;-53
2021/06/30 12:39:53;;;;;;;;;;;24.70;43.00;;;;;;8265602;28;19929;-49
2021/06/30 12:44:03;;;;;;;;;;;24.60;42.90;;;;;;8264424;28;20363;-49
2021/06/30 12:48:04;;;;;;;;;;;24.60;42.90;;;;;;8265940;28;20071;-51
2021/06/30 12:52:05;;;;;;;;;;;24.60;42.90;;;;;;8264620;28;20355;-51
2021/06/30 12:56:13;;;;;;;;;;;24.60;42.90;;;;;;8269281;28;19910;-50
2021/06/30 13:00:19;;;;;;;;;;;24.60;42.90;;;;;;8264873;28;19957;-52
2021/06/30 13:04:30;;;;;;;;;;;24.60;42.90;;;;;;8266170;28;20278;-52
2021/06/30 13:08:30;;;;;;;;;;;24.60;42.90;;;;;;8264705;28;19960;-53
2021/06/30 13:12:31;;;;;;;;;;;24.60;42.90;;;;;;8265765;28;19918;-51
2021/06/30 13:16:33;;;;;;;;;;;24.60;42.90;;;;;;8267408;28;19917;-48
2021/06/30 13:20:33;;;;;;;;;;;24.70;42.90;;;;;;8264301;28;19928;-51
2021/06/30 13:24:43;;;;;;;;;;;24.60;42.80;;;;;;8264257;28;19921;-52
2021/06/30 13:37:23;;;;;;;;;;;24.70;42.90;;;;;;8235657;28;19964;-52
2021/06/30 13:41:24;;;;;;;;;;;24.70;42.90;;;;;;8255334;28;19922;-49
2021/06/30 13:45:24;;;;;;;;;;;24.70;42.80;;;;;;8263606;28;19960;-51
2021/06/30 13:49:25;;;;;;;;;;;24.70;42.90;;;;;;8262317;28;19914;-50
2021/06/30 13:53:27;;;;;;;;;;;24.70;42.80;;;;;;8267835;28;19916;-47
2021/06/30 13:57:27;;;;;;;;;;;24.70;42.80;;;;;;8263429;28;19920;-49
2021/06/30 14:01:28;;;;;;;;;;;24.70;42.90;;;;;;8262425;28;19922;-48
2021/06/30 14:05:31;;;;;;;;;;;24.70;42.80;;;;;;8262075;28;20049;-49
2021/06/30 14:09:32;;;;;;;;;;;24.70;42.80;;;;;;8267521;28;20374;-52
2021/06/30 14:13:32;;;;;;;;;;;24.70;42.80;;;;;;8262462;28;19914;-51
2021/06/30 14:17:34;;;;;;;;;;;24.70;42.80;;;;;;8262818;28;19914;-48
2021/06/30 14:21:35;;;;;;;;;;;24.70;42.90;;;;;;8262420;28;19990;-48
2021/06/30 14:25:35;;;;;;;;;;;24.70;43.00;;;;;;8261887;28;19921;-50
2021/06/30 14:29:36;;;;;;;;;;;24.70;43.00;;;;;;8266625;28;19933;-50
2021/06/30 14:33:36;;;;;;;;;;;24.70;43.10;;;;;;8262015;28;19923;-48
2021/06/30 14:37:38;;;;;;;;;;;24.70;43.10;;;;;;8261587;28;20318;-47
2021/06/30 14:41:39;;;;;;;;;;;24.60;43.10;;;;;;8262279;28;20412;-50
2021/06/30 14:45:39;;;;;;;;;;;24.70;43.20;;;;;;8266243;28;19909;-50
2021/06/30 14:49:40;;;;;;;;;;;24.60;43.20;;;;;;8261255;28;20004;-51
2021/06/30 14:53:41;;;;;;;;;;;24.60;43.20;;;;;;8243115;28;19918;-51
2021/06/30 14:57:41;;;;;;;;;;;24.60;43.20;;;;;;8239208;28;20375;-50
2021/06/30 15:01:42;;;;;;;;;;;24.60;43.20;;;;;;8262068;28;19924;-50
2021/06/30 15:05:43;;;;;;;;;;;24.60;43.30;;;;;;8265102;28;19925;-51
2021/06/30 15:09:43;;;;;;;;;;;24.60;43.30;;;;;;8261487;28;19921;-51
2021/06/30 15:13:44;;;;;;;;;;;24.60;43.30;;;;;;8260847;28;20334;-50
2021/06/30 15:17:44;;;;;;;;;;;24.60;43.30;;;;;;8261373;28;19910;-48
2021/06/30 15:21:48;;;;;;;;;;;24.60;43.30;;;;;;8265592;28;19928;-47
2021/06/30 15:25:48;;;;;;;;;;;24.60;43.30;;;;;;8261154;28;20359;-47
2021/06/30 15:29:49;;;;;;;;;;;24.60;43.30;;;;;;8261016;28;19941;-51
2021/06/30 15:33:49;;;;;;;;;;;24.60;43.40;;;;;;8261135;28;20005;-51
2021/06/30 15:37:50;;;;;;;;;;;24.60;43.40;;;;;;8264923;28;19918;-52
2021/06/30 15:41:52;;;;;;;;;;;24.60;43.40;;;;;;8260844;28;19932;-51
2021/06/30 15:45:53;;;;;;;;;;;24.60;43.50;;;;;;8260955;28;19949;-51
2021/06/30 15:49:54;;;;;;;;;;;24.60;43.50;;;;;;8260374;28;19993;-52
2021/06/30 15:53:54;;;;;;;;;;;24.50;43.40;;;;;;8260758;28;20367;-50
2021/06/30 15:57:55;;;;;;;;;;;24.60;43.50;;;;;;8263908;28;19917;-49
2021/06/30 16:01:56;;;;;;;;;;;24.50;43.50;;;;;;8259803;28;19921;-48
2021/06/30 16:05:56;;;;;;;;;;;24.50;43.50;;;;;;8260904;28;19924;-47
2021/06/30 16:09:57;;;;;;;;;;;24.50;43.50;;;;;;8260011;28;19913;-49
2021/06/30 16:13:57;;;;;;;;;;;24.50;43.60;;;;;;8269713;28;19909;-51
2021/06/30 16:17:57;;;;;;;;;;;24.50;43.60;;;;;;8266603;28;19920;-48
2021/06/30 16:21:58;;;;;;;;;;;24.50;43.60;;;;;;8265838;28;19929;-51
2021/06/30 16:25:59;;;;;;;;;;;24.50;43.60;;;;;;8266119;28;19968;-52
2021/06/30 16:30:00;;;;;;;;;;;24.50;43.70;;;;;;8270265;28;20356;-51
2021/06/30 16:34:00;;;;;;;;;;;24.50;43.70;;;;;;8265102;28;19921;-52
2021/06/30 16:38:01;;;;;;;;;;;24.50;43.70;;;;;;8244201;28;19921;-48
2021/06/30 16:42:01;;;;;;;;;;;24.50;43.70;;;;;;8245790;28;19968;-49
2021/06/30 16:46:03;;;;;;;;;;;24.40;43.70;;;;;;8264826;28;20052;-52
2021/06/30 16:50:03;;;;;;;;;;;24.50;43.80;;;;;;8269920;28;19916;-52
2021/06/30 16:54:04;;;;;;;;;;;24.40;43.70;;;;;;8265035;28;19914;-51
2021/06/30 16:58:05;;;;;;;;;;;24.40;43.80;;;;;;8264942;28;19918;-51
2021/06/30 17:02:05;;;;;;;;;;;24.40;43.80;;;;;;8264627;28;20386;-51
2021/06/30 17:06:06;;;;;;;;;;;24.40;43.80;;;;;;8269557;28;20382;-49
2021/06/30 17:10:09;;;;;;;;;;;24.40;43.80;;;;;;8264107;28;20341;-50
2021/06/30 17:14:10;;;;;;;;;;;24.40;43.80;;;;;;8264643;28;19914;-51
2021/06/30 17:18:10;;;;;;;;;;;24.40;43.90;;;;;;8264362;28;20407;-52
2021/06/30 17:22:10;;;;;;;;;;;24.40;43.90;;;;;;8264654;28;20000;-51
2021/06/30 17:26:11;;;;;;;;;;;24.30;43.90;;;;;;8267494;28;19937;-50
2021/06/30 17:30:12;;;;;;;;;;;24.40;43.90;;;;;;8263975;28;20383;-51
2021/06/30 17:34:13;;;;;;;;;;;24.40;43.90;;;;;;8263450;28;19952;-51
2021/06/30 17:38:13;;;;;;;;;;;24.30;43.90;;;;;;8264080;28;19909;-51
2021/06/30 17:42:14;;;;;;;;;;;24.30;43.90;;;;;;8268147;28;20382;-51
2021/06/30 17:46:14;;;;;;;;;;;24.30;43.90;;;;;;8262972;28;19980;-49
2021/06/30 17:50:15;;;;;;;;;;;24.30;43.90;;;;;;8263447;28;19913;-50
2021/06/30 17:54:16;;;;;;;;;;;24.30;43.90;;;;;;8263225;28;20287;-48
2021/06/30 17:58:16;;;;;;;;;;;24.30;44.00;;;;;;8267139;28;19925;-50
2021/06/30 18:02:16;;;;;;;;;;;24.30;44.00;;;;;;8262820;28;20012;-50
2021/06/30 18:06:17;;;;;;;;;;;24.30;44.00;;;;;;8262615;28;19953;-48
2021/06/30 18:10:18;;;;;;;;;;;24.30;44.00;;;;;;8262391;28;19913;-48
2021/06/30 18:14:19;;;;;;;;;;;24.30;44.00;;;;;;8262868;28;19917;-50
2021/06/30 18:18:20;;;;;;;;;;;24.20;44.00;;;;;;8267001;28;19956;-51
2021/06/30 18:22:20;;;;;;;;;;;24.30;44.00;;;;;;8262606;28;19972;-50
2021/06/30 18:26:22;;;;;;;;;;;24.20;44.00;;;;;;8262319;28;19933;-51
2021/06/30 18:30:23;;;;;;;;;;;24.20;44.00;;;;;;8262410;28;19964;-48
2021/06/30 18:34:23;;;;;;;;;;;24.20;44.00;;;;;;8265743;28;19914;-48
2021/06/30 18:38:24;;;;;;;;;;;24.20;44.50;;;;;;8262106;28;19941;-48
2021/06/30 18:42:25;;;;;;;;;;;24.20;44.00;;;;;;8261926;28;19922;-48
2021/06/30 18:46:25;;;;;;;;;;;24.20;44.00;;;;;;8260865;28;19921;-48
2021/06/30 18:50:26;;;;;;;;;;;24.10;44.00;;;;;;8266493;28;19996;-48
2021/06/30 18:54:26;;;;;;;;;;;24.20;44.10;;;;;;8261833;28;20020;-48
2021/06/30 18:58:27;;;;;;;;;;;24.10;44.00;;;;;;8261409;28;19913;-50
2021/06/30 19:02:28;;;;;;;;;;;24.20;44.00;;;;;;8261369;28;19922;-50
2021/06/30 19:06:28;;;;;;;;;;;24.20;44.00;;;;;;8261665;28;19987;-47
2021/06/30 19:10:29;;;;;;;;;;;24.10;44.00;;;;;;8265757;28;19916;-48
2021/06/30 19:14:33;;;;;;;;;;;24.10;44.00;;;;;;8261698;28;20036;-47
2021/06/30 19:18:36;;;;;;;;;;;24.10;44.00;;;;;;8261436;28;20345;-48
2021/06/30 19:22:36;;;;;;;;;;;24.10;44.00;;;;;;8260927;28;20366;-48
2021/06/30 19:26:37;;;;;;;;;;;24.10;44.00;;;;;;8265972;28;19910;-49
2021/06/30 19:30:40;;;;;;;;;;;24.10;44.10;;;;;;8261174;28;19968;-49
2021/06/30 19:34:41;;;;;;;;;;;24.10;44.10;;;;;;8260642;28;19967;-48
2021/06/30 19:38:41;;;;;;;;;;;24.10;44.10;;;;;;8260513;28;19943;-48
2021/06/30 19:42:42;;;;;;;;;;;24.10;44.10;;;;;;8261145;28;20381;-48
2021/06/30 19:46:44;;;;;;;;;;;24.10;44.10;;;;;;8268075;28;20371;-48
2021/06/30 19:50:46;;;;;;;;;;;24.10;44.10;;;;;;8267235;28;20317;-48
2021/06/30 19:54:46;;;;;;;;;;;24.00;44.00;;;;;;8267093;28;19913;-50
2021/06/30 19:58:47;;;;;;;;;;;24.00;44.10;;;;;;8266286;28;19914;-52
2021/06/30 20:02:48;;;;;;;;;;;24.00;44.10;;;;;;8271347;28;19917;-48
2021/06/30 20:06:48;;;;;;;;;;;24.00;44.10;;;;;;8239473;28;20410;-48
2021/06/30 20:10:49;;;;;;;;;;;24.00;44.00;;;;;;8252641;28;19924;-52
2021/06/30 20:14:49;;;;;;;;;;;24.00;44.10;;;;;;8266525;28;19914;-49
2021/06/30 20:18:50;;;;;;;;;;;24.00;44.10;;;;;;8270722;28;19910;-49
2021/06/30 20:22:50;;;;;;;;;;;24.00;44.10;;;;;;8266105;28;20351;-49
2021/06/30 20:26:51;;;;;;;;;;;24.00;44.10;;;;;;8266583;28;20291;-48
2021/06/30 20:30:51;;;;;;;;;;;24.00;44.10;;;;;;8265940;28;20012;-50
2021/06/30 20:34:52;;;;;;;;;;;24.00;44.10;;;;;;8265459;28;19917;-48
2021/06/30 20:38:53;;;;;;;;;;;23.90;44.10;;;;;;8270276;28;19910;-50
2021/06/30 20:42:53;;;;;;;;;;;24.00;44.10;;;;;;8265749;28;19913;-48
2021/06/30 20:46:54;;;;;;;;;;;23.90;44.10;;;;;;8265065;28;19944;-48
2021/06/30 20:50:55;;;;;;;;;;;23.90;44.10;;;;;;8265597;28;19921;-51
2021/06/30 20:54:56;;;;;;;;;;;23.90;44.10;;;;;;8269634;28;19910;-48
2021/06/30 20:58:56;;;;;;;;;;;23.90;44.10;;;;;;8236186;28;19930;-53
2021/06/30 21:02:57;;;;;;;;;;;23.90;44.10;;;;;;8252698;28;20414;-50
2021/06/30 21:06:57;;;;;;;;;;;23.90;44.10;;;;;;8264844;28;20001;-49
2021/06/30 21:10:58;;;;;;;;;;;23.90;44.10;;;;;;8267003;28;20004;-50
2021/06/30 21:14:58;;;;;;;;;;;23.90;44.10;;;;;;8267965;28;20294;-49
2021/06/30 21:18:58;;;;;;;;;;;23.90;44.10;;;;;;8264071;28;19976;-48
2021/06/30 21:22:59;;;;;;;;;;;23.80;44.00;;;;;;8264468;28;19917;-48
2021/06/30 21:26:59;;;;;;;;;;;23.80;44.00;;;;;;8264334;28;19918;-48
2021/06/30 21:31:00;;;;;;;;;;;23.80;44.00;;;;;;8268313;28;20298;-49
2021/06/30 21:35:00;;;;;;;;;;;23.80;44.10;;;;;;8264338;28;19914;-48
2021/06/30 21:39:01;;;;;;;;;;;23.80;44.00;;;;;;8264109;28;19925;-49
2021/06/30 21:43:01;;;;;;;;;;;23.80;44.10;;;;;;8263398;28;19964;-48
2021/06/30 21:47:02;;;;;;;;;;;23.80;44.10;;;;;;8268161;28;19920;-48
2021/06/30 21:51:03;;;;;;;;;;;23.80;44.10;;;;;;8264049;28;19914;-49
2021/06/30 21:55:03;;;;;;;;;;;23.80;44.00;;;;;;8262938;28;19964;-48
2021/06/30 21:59:04;;;;;;;;;;;23.80;44.00;;;;;;8263627;28;19922;-48
2021/06/30 22:03:04;;;;;;;;;;;23.70;44.00;;;;;;8262328;28;19917;-49
2021/06/30 22:07:05;;;;;;;;;;;23.70;44.00;;;;;;8267159;28;19924;-49
2021/06/30 22:11:05;;;;;;;;;;;23.70;44.00;;;;;;8262572;28;19928;-48
2021/06/30 22:15:07;;;;;;;;;;;23.70;44.20;;;;;;8262966;28;19917;-48
2021/06/30 22:19:08;;;;;;;;;;;23.70;44.00;;;;;;8262269;28;19964;-49
2021/06/30 22:23:13;;;;;;;;;;;23.70;44.00;;;;;;8267059;28;19916;-48
2021/06/30 22:27:14;;;;;;;;;;;23.70;44.00;;;;;;8263960;28;19921;-49
2021/06/30 22:31:14;;;;;;;;;;;23.70;44.00;;;;;;8262365;28;19916;-48
2021/06/30 22:35:15;;;;;;;;;;;23.70;44.10;;;;;;8262336;28;19972;-48
2021/06/30 22:39:15;;;;;;;;;;;23.70;44.10;;;;;;8266562;28;19984;-48
2021/06/30 22:43:16;;;;;;;;;;;23.70;44.10;;;;;;8261754;28;19945;-48
2021/06/30 22:47:16;;;;;;;;;;;23.70;44.10;;;;;;8262034;28;20379;-49
2021/06/30 22:51:17;;;;;;;;;;;23.60;44.00;;;;;;8262193;28;19917;-48
2021/06/30 22:55:17;;;;;;;;;;;23.60;44.00;;;;;;8261335;28;20005;-50
2021/06/30 22:59:18;;;;;;;;;;;23.60;44.00;;;;;;8266472;28;19924;-50
2021/06/30 23:03:19;;;;;;;;;;;23.60;44.00;;;;;;8261951;28;19972;-49
2021/06/30 23:07:19;;;;;;;;;;;23.60;44.10;;;;;;8261551;28;19913;-50
2021/06/30 23:11:20;;;;;;;;;;;23.60;44.00;;;;;;8261741;28;19914;-47
2021/06/30 23:15:20;;;;;;;;;;;23.60;44.10;;;;;;8266023;28;19910;-48
2021/06/30 23:19:21;;;;;;;;;;;23.60;44.10;;;;;;8261128;28;20028;-48
2021/06/30 23:23:21;;;;;;;;;;;23.60;44.10;;;;;;8267727;28;19922;-48
2021/06/30 23:27:22;;;;;;;;;;;23.60;44.10;;;;;;8268008;28;20408;-48
2021/06/30 23:31:22;;;;;;;;;;;23.60;44.10;;;;;;8269790;28;19917;-48